sensor_id;sensor_type;location;lat;lon;timestamp;temperature;humidity
4520;DHT22;2272;49.226;8.108;2023-01-10T00:01:38;5.40;99.90
4520;DHT22;2272;49.226;8.108;2023-01-10T00:04:05;5.30;99.90
4520;DHT22;2272;49.226;8.108;2023-01-10T00:06:31;5.20;99.90
4520;DHT22;2272;49.226;8.108;2023-01-10T00:08:58;5.20;99.90
4520;DHT22;2272;49.226;8.108;2023-01-10T00:11:25;5.20;99.90
4520;DHT22;2272;49.226;8.108;2023-01-10T00:14:10;5.20;99.90
4520;DHT22;2272;49.226;8.108;2023-01-10T00:16:37;5.20;99.90
4520;DHT22;2272;49.226;8.108;2023-01-10T00:19:05;5.20;99.90
4520;DHT22;2272;49.226;8.108;2023-01-10T00:21:32;5.20;99.90
4520;DHT22;2272;49.226;8.108;2023-01-10T00:23:59;5.20;99.90
4520;DHT22;2272;49.226;8.108;2023-01-10T00:26:42;5.10;99.90
4520;DHT22;2272;49.226;8.108;2023-01-10T00:29:13;5.10;99.90
4520;DHT22;2272;49.226;8.108;2023-01-10T00:31:41;5.00;99.90
4520;DHT22;2272;49.226;8.108;2023-01-10T00:34:07;5.00;99.90
4520;DHT22;2272;49.226;8.108;2023-01-10T00:36:34;4.90;99.90
4520;DHT22;2272;49.226;8.108;2023-01-10T00:39:01;4.80;99.90
4520;DHT22;2272;49.226;8.108;2023-01-10T00:41:32;4.80;99.90
4520;DHT22;2272;49.226;8.108;2023-01-10T00:44:17;4.80;99.90
4520;DHT22;2272;49.226;8.108;2023-01-10T00:46:44;4.70;99.90
4520;DHT22;2272;49.226;8.108;2023-01-10T00:49:11;4.70;99.90
4520;DHT22;2272;49.226;8.108;2023-01-10T00:51:40;4.70;99.90
4520;DHT22;2272;49.226;8.108;2023-01-10T00:54:07;4.70;99.90
4520;DHT22;2272;49.226;8.108;2023-01-10T00:56:34;4.70;99.90
4520;DHT22;2272;49.226;8.108;2023-01-10T00:59:01;4.60;99.90
4520;DHT22;2272;49.226;8.108;2023-01-10T01:01:29;4.60;99.90
4520;DHT22;2272;49.226;8.108;2023-01-10T01:03:56;4.60;99.90
4520;DHT22;2272;49.226;8.108;2023-01-10T01:06:23;4.60;99.90
4520;DHT22;2272;49.226;8.108;2023-01-10T01:08:50;4.60;99.90
4520;DHT22;2272;49.226;8.108;2023-01-10T01:11:17;4.50;99.90
4520;DHT22;2272;49.226;8.108;2023-01-10T01:13:43;4.50;99.90
4520;DHT22;2272;49.226;8.108;2023-01-10T01:16:10;4.40;99.90
4520;DHT22;2272;49.226;8.108;2023-01-10T01:18:38;4.50;99.90
4520;DHT22;2272;49.226;8.108;2023-01-10T01:21:05;4.50;99.90
4520;DHT22;2272;49.226;8.108;2023-01-10T01:23:33;4.50;99.90
4520;DHT22;2272;49.226;8.108;2023-01-10T01:26:01;4.60;99.90
4520;DHT22;2272;49.226;8.108;2023-01-10T01:28:27;4.60;99.90
4520;DHT22;2272;49.226;8.108;2023-01-10T01:30:54;4.60;99.90
4520;DHT22;2272;49.226;8.108;2023-01-10T01:33:21;4.60;99.90
4520;DHT22;2272;49.226;8.108;2023-01-10T01:35:49;4.60;99.90
4520;DHT22;2272;49.226;8.108;2023-01-10T01:38:16;4.60;99.90
4520;DHT22;2272;49.226;8.108;2023-01-10T01:40:43;4.60;99.90
4520;DHT22;2272;49.226;8.108;2023-01-10T01:43:20;4.60;99.90
4520;DHT22;2272;49.226;8.108;2023-01-10T01:45:48;4.60;99.90
4520;DHT22;2272;49.226;8.108;2023-01-10T01:48:19;4.60;99.90
4520;DHT22;2272;49.226;8.108;2023-01-10T01:50:52;4.60;99.90
4520;DHT22;2272;49.226;8.108;2023-01-10T01:53:24;4.70;99.90
4520;DHT22;2272;49.226;8.108;2023-01-10T01:55:53;4.70;99.90
4520;DHT22;2272;49.226;8.108;2023-01-10T01:58:26;4.70;99.90
4520;DHT22;2272;49.226;8.108;2023-01-10T02:00:53;4.70;99.90
4520;DHT22;2272;49.226;8.108;2023-01-10T02:03:22;4.80;99.90
4520;DHT22;2272;49.226;8.108;2023-01-10T02:05:51;4.80;99.90
4520;DHT22;2272;49.226;8.108;2023-01-10T02:08:18;4.80;99.90
4520;DHT22;2272;49.226;8.108;2023-01-10T02:10:48;4.80;99.90
4520;DHT22;2272;49.226;8.108;2023-01-10T02:13:21;4.80;99.90
4520;DHT22;2272;49.226;8.108;2023-01-10T02:15:49;4.80;99.90
4520;DHT22;2272;49.226;8.108;2023-01-10T02:18:16;4.80;99.90
4520;DHT22;2272;49.226;8.108;2023-01-10T02:21:03;4.80;99.90
4520;DHT22;2272;49.226;8.108;2023-01-10T02:23:58;4.80;99.90
4520;DHT22;2272;49.226;8.108;2023-01-10T02:26:45;4.80;99.90
4520;DHT22;2272;49.226;8.108;2023-01-10T02:32:25;4.80;99.90
4520;DHT22;2272;49.226;8.108;2023-01-10T02:35:02;4.70;99.90
4520;DHT22;2272;49.226;8.108;2023-01-10T02:37:39;4.70;99.90
4520;DHT22;2272;49.226;8.108;2023-01-10T02:40:13;4.80;99.90
4520;DHT22;2272;49.226;8.108;2023-01-10T02:42:48;4.80;99.90
4520;DHT22;2272;49.226;8.108;2023-01-10T02:45:17;4.80;99.90
4520;DHT22;2272;49.226;8.108;2023-01-10T02:47:47;4.70;99.90
4520;DHT22;2272;49.226;8.108;2023-01-10T02:50:27;4.70;99.90
4520;DHT22;2272;49.226;8.108;2023-01-10T02:52:56;4.60;99.90
4520;DHT22;2272;49.226;8.108;2023-01-10T02:55:32;4.60;99.90
4520;DHT22;2272;49.226;8.108;2023-01-10T02:58:08;4.60;99.90
4520;DHT22;2272;49.226;8.108;2023-01-10T03:00:44;4.60;99.90
4520;DHT22;2272;49.226;8.108;2023-01-10T03:03:23;4.60;99.90
4520;DHT22;2272;49.226;8.108;2023-01-10T03:06:05;4.40;99.90
4520;DHT22;2272;49.226;8.108;2023-01-10T03:08:37;4.30;99.90
4520;DHT22;2272;49.226;8.108;2023-01-10T03:11:07;4.20;99.90
4520;DHT22;2272;49.226;8.108;2023-01-10T03:13:36;4.10;99.90
4520;DHT22;2272;49.226;8.108;2023-01-10T03:16:09;4.00;99.90
4520;DHT22;2272;49.226;8.108;2023-01-10T03:18:40;3.90;99.90
4520;DHT22;2272;49.226;8.108;2023-01-10T03:21:09;3.90;99.90
4520;DHT22;2272;49.226;8.108;2023-01-10T03:23:37;3.90;99.90
4520;DHT22;2272;49.226;8.108;2023-01-10T03:26:05;3.90;99.90
4520;DHT22;2272;49.226;8.108;2023-01-10T03:28:36;4.10;99.90
4520;DHT22;2272;49.226;8.108;2023-01-10T03:31:07;4.20;99.90
4520;DHT22;2272;49.226;8.108;2023-01-10T03:33:37;4.20;99.90
4520;DHT22;2272;49.226;8.108;2023-01-10T03:36:11;4.30;99.90
4520;DHT22;2272;49.226;8.108;2023-01-10T03:38:44;4.30;99.90
4520;DHT22;2272;49.226;8.108;2023-01-10T03:41:15;4.30;99.90
4520;DHT22;2272;49.226;8.108;2023-01-10T03:43:46;4.20;99.90
4520;DHT22;2272;49.226;8.108;2023-01-10T03:46:35;4.00;99.90
4520;DHT22;2272;49.226;8.108;2023-01-10T03:49:06;4.00;99.90
4520;DHT22;2272;49.226;8.108;2023-01-10T03:51:35;4.10;99.90
4520;DHT22;2272;49.226;8.108;2023-01-10T03:54:03;4.10;99.90
4520;DHT22;2272;49.226;8.108;2023-01-10T03:56:30;4.00;99.90
4520;DHT22;2272;49.226;8.108;2023-01-10T03:58:57;4.00;99.90
4520;DHT22;2272;49.226;8.108;2023-01-10T04:01:24;4.00;99.90
4520;DHT22;2272;49.226;8.108;2023-01-10T04:03:51;4.00;99.90
4520;DHT22;2272;49.226;8.108;2023-01-10T04:06:19;4.00;99.90
4520;DHT22;2272;49.226;8.108;2023-01-10T04:08:46;4.10;99.90
4520;DHT22;2272;49.226;8.108;2023-01-10T04:11:12;4.20;99.90
4520;DHT22;2272;49.226;8.108;2023-01-10T04:13:39;4.20;99.90
4520;DHT22;2272;49.226;8.108;2023-01-10T04:16:07;4.30;99.90
4520;DHT22;2272;49.226;8.108;2023-01-10T04:18:34;4.50;99.90
4520;DHT22;2272;49.226;8.108;2023-01-10T04:21:00;4.50;99.90
4520;DHT22;2272;49.226;8.108;2023-01-10T04:23:28;4.60;99.90
4520;DHT22;2272;49.226;8.108;2023-01-10T04:25:55;4.70;99.90
4520;DHT22;2272;49.226;8.108;2023-01-10T04:28:22;4.60;99.90
4520;DHT22;2272;49.226;8.108;2023-01-10T04:30:48;4.60;99.90
4520;DHT22;2272;49.226;8.108;2023-01-10T04:33:15;4.60;99.90
4520;DHT22;2272;49.226;8.108;2023-01-10T04:35:46;4.60;99.90
4520;DHT22;2272;49.226;8.108;2023-01-10T04:38:12;4.70;99.90
4520;DHT22;2272;49.226;8.108;2023-01-10T04:40:41;4.70;99.90
4520;DHT22;2272;49.226;8.108;2023-01-10T04:43:08;4.80;99.90
4520;DHT22;2272;49.226;8.108;2023-01-10T04:45:35;4.80;99.90
4520;DHT22;2272;49.226;8.108;2023-01-10T04:48:02;4.90;99.90
4520;DHT22;2272;49.226;8.108;2023-01-10T04:50:29;4.90;99.90
4520;DHT22;2272;49.226;8.108;2023-01-10T04:52:56;4.90;99.90
4520;DHT22;2272;49.226;8.108;2023-01-10T04:55:23;4.90;99.90
4520;DHT22;2272;49.226;8.108;2023-01-10T04:57:51;4.80;99.90
4520;DHT22;2272;49.226;8.108;2023-01-10T05:00:18;4.80;99.90
4520;DHT22;2272;49.226;8.108;2023-01-10T05:02:44;4.80;99.90
4520;DHT22;2272;49.226;8.108;2023-01-10T05:05:12;4.80;99.90
4520;DHT22;2272;49.226;8.108;2023-01-10T05:07:39;4.70;99.90
4520;DHT22;2272;49.226;8.108;2023-01-10T05:10:07;4.70;99.90
4520;DHT22;2272;49.226;8.108;2023-01-10T05:12:34;4.60;99.90
4520;DHT22;2272;49.226;8.108;2023-01-10T05:15:03;4.60;99.90
4520;DHT22;2272;49.226;8.108;2023-01-10T05:17:29;4.50;99.90
4520;DHT22;2272;49.226;8.108;2023-01-10T05:19:56;4.40;99.90
4520;DHT22;2272;49.226;8.108;2023-01-10T05:22:23;4.40;99.90
4520;DHT22;2272;49.226;8.108;2023-01-10T05:24:49;4.40;99.90
4520;DHT22;2272;49.226;8.108;2023-01-10T05:27:16;4.30;99.90
4520;DHT22;2272;49.226;8.108;2023-01-10T05:29:43;4.20;99.90
4520;DHT22;2272;49.226;8.108;2023-01-10T05:32:11;4.10;99.90
4520;DHT22;2272;49.226;8.108;2023-01-10T05:34:38;4.10;99.90
4520;DHT22;2272;49.226;8.108;2023-01-10T05:37:04;4.00;99.90
4520;DHT22;2272;49.226;8.108;2023-01-10T05:39:31;4.00;99.90
4520;DHT22;2272;49.226;8.108;2023-01-10T05:41:58;3.90;99.90
4520;DHT22;2272;49.226;8.108;2023-01-10T05:44:25;3.90;99.90
4520;DHT22;2272;49.226;8.108;2023-01-10T05:46:51;3.80;99.90
4520;DHT22;2272;49.226;8.108;2023-01-10T05:49:19;3.80;99.90
4520;DHT22;2272;49.226;8.108;2023-01-10T05:51:46;3.80;99.90
4520;DHT22;2272;49.226;8.108;2023-01-10T05:54:12;3.80;99.90
4520;DHT22;2272;49.226;8.108;2023-01-10T05:56:39;3.80;99.90
4520;DHT22;2272;49.226;8.108;2023-01-10T05:59:07;3.80;99.90
4520;DHT22;2272;49.226;8.108;2023-01-10T06:01:33;3.90;99.90
4520;DHT22;2272;49.226;8.108;2023-01-10T06:04:00;3.90;99.90
4520;DHT22;2272;49.226;8.108;2023-01-10T06:06:28;4.00;99.90
4520;DHT22;2272;49.226;8.108;2023-01-10T06:08:55;4.10;99.90
4520;DHT22;2272;49.226;8.108;2023-01-10T06:11:23;4.10;99.90
4520;DHT22;2272;49.226;8.108;2023-01-10T06:13:54;4.20;99.90
4520;DHT22;2272;49.226;8.108;2023-01-10T06:16:21;4.10;99.90
4520;DHT22;2272;49.226;8.108;2023-01-10T06:18:47;4.10;99.90
4520;DHT22;2272;49.226;8.108;2023-01-10T06:21:14;4.20;99.90
4520;DHT22;2272;49.226;8.108;2023-01-10T06:23:42;4.30;99.90
4520;DHT22;2272;49.226;8.108;2023-01-10T06:26:09;4.40;99.90
4520;DHT22;2272;49.226;8.108;2023-01-10T06:28:36;4.40;99.90
4520;DHT22;2272;49.226;8.108;2023-01-10T06:31:02;4.40;99.90
4520;DHT22;2272;49.226;8.108;2023-01-10T06:33:29;4.40;99.90
4520;DHT22;2272;49.226;8.108;2023-01-10T06:35:56;4.40;99.90
4520;DHT22;2272;49.226;8.108;2023-01-10T06:38:22;4.40;99.90
4520;DHT22;2272;49.226;8.108;2023-01-10T06:40:50;4.40;99.90
4520;DHT22;2272;49.226;8.108;2023-01-10T06:43:17;4.50;99.90
4520;DHT22;2272;49.226;8.108;2023-01-10T06:45:43;4.60;99.90
4520;DHT22;2272;49.226;8.108;2023-01-10T06:48:10;4.60;99.90
4520;DHT22;2272;49.226;8.108;2023-01-10T06:50:37;4.50;99.90
4520;DHT22;2272;49.226;8.108;2023-01-10T06:53:03;4.50;99.90
4520;DHT22;2272;49.226;8.108;2023-01-10T06:55:30;4.50;99.90
4520;DHT22;2272;49.226;8.108;2023-01-10T06:58:00;4.50;99.90
4520;DHT22;2272;49.226;8.108;2023-01-10T07:00:28;4.50;99.90
4520;DHT22;2272;49.226;8.108;2023-01-10T07:02:57;4.50;99.90
4520;DHT22;2272;49.226;8.108;2023-01-10T07:05:24;4.50;99.90
4520;DHT22;2272;49.226;8.108;2023-01-10T07:07:50;4.50;99.90
4520;DHT22;2272;49.226;8.108;2023-01-10T07:10:17;4.30;99.90
4520;DHT22;2272;49.226;8.108;2023-01-10T07:12:44;4.20;99.90
4520;DHT22;2272;49.226;8.108;2023-01-10T07:15:12;4.10;99.90
4520;DHT22;2272;49.226;8.108;2023-01-10T07:17:39;4.20;99.90
4520;DHT22;2272;49.226;8.108;2023-01-10T07:20:06;4.30;99.90
4520;DHT22;2272;49.226;8.108;2023-01-10T07:22:33;4.40;99.90
4520;DHT22;2272;49.226;8.108;2023-01-10T07:25:00;4.40;99.90
4520;DHT22;2272;49.226;8.108;2023-01-10T07:27:29;4.40;99.90
4520;DHT22;2272;49.226;8.108;2023-01-10T07:29:56;4.50;99.90
4520;DHT22;2272;49.226;8.108;2023-01-10T07:32:24;4.60;99.90
4520;DHT22;2272;49.226;8.108;2023-01-10T07:34:50;4.70;99.90
4520;DHT22;2272;49.226;8.108;2023-01-10T07:37:17;4.80;99.90
4520;DHT22;2272;49.226;8.108;2023-01-10T07:39:44;4.80;99.90
4520;DHT22;2272;49.226;8.108;2023-01-10T07:42:10;4.80;99.90
4520;DHT22;2272;49.226;8.108;2023-01-10T07:44:37;4.80;99.90
4520;DHT22;2272;49.226;8.108;2023-01-10T07:47:04;4.80;99.90
4520;DHT22;2272;49.226;8.108;2023-01-10T07:49:32;4.80;99.90
4520;DHT22;2272;49.226;8.108;2023-01-10T07:51:58;4.80;99.90
4520;DHT22;2272;49.226;8.108;2023-01-10T07:54:25;4.80;99.90
4520;DHT22;2272;49.226;8.108;2023-01-10T07:56:52;4.80;99.90
4520;DHT22;2272;49.226;8.108;2023-01-10T07:59:18;4.80;99.90
4520;DHT22;2272;49.226;8.108;2023-01-10T08:01:45;4.90;99.90
4520;DHT22;2272;49.226;8.108;2023-01-10T08:04:13;4.90;99.90
4520;DHT22;2272;49.226;8.108;2023-01-10T08:06:41;4.90;99.90
4520;DHT22;2272;49.226;8.108;2023-01-10T08:09:07;4.90;99.90
4520;DHT22;2272;49.226;8.108;2023-01-10T08:11:34;4.90;99.90
4520;DHT22;2272;49.226;8.108;2023-01-10T08:14:00;4.90;99.90
4520;DHT22;2272;49.226;8.108;2023-01-10T08:16:27;4.90;99.90
4520;DHT22;2272;49.226;8.108;2023-01-10T08:18:54;4.90;99.90
4520;DHT22;2272;49.226;8.108;2023-01-10T08:21:20;5.00;99.90
4520;DHT22;2272;49.226;8.108;2023-01-10T08:23:48;5.00;99.90
4520;DHT22;2272;49.226;8.108;2023-01-10T08:26:16;5.00;99.90
4520;DHT22;2272;49.226;8.108;2023-01-10T08:28:42;5.00;99.90
4520;DHT22;2272;49.226;8.108;2023-01-10T08:31:09;5.10;99.90
4520;DHT22;2272;49.226;8.108;2023-01-10T08:33:37;5.10;99.90
4520;DHT22;2272;49.226;8.108;2023-01-10T08:36:04;5.10;99.90
4520;DHT22;2272;49.226;8.108;2023-01-10T08:38:32;5.20;99.90
4520;DHT22;2272;49.226;8.108;2023-01-10T08:40:59;5.20;99.90
4520;DHT22;2272;49.226;8.108;2023-01-10T08:43:26;5.20;99.90
4520;DHT22;2272;49.226;8.108;2023-01-10T08:45:53;5.30;99.90
4520;DHT22;2272;49.226;8.108;2023-01-10T08:48:19;5.30;99.90
4520;DHT22;2272;49.226;8.108;2023-01-10T08:50:46;5.30;99.90
4520;DHT22;2272;49.226;8.108;2023-01-10T08:53:13;5.30;99.90
4520;DHT22;2272;49.226;8.108;2023-01-10T08:55:39;5.40;99.90
4520;DHT22;2272;49.226;8.108;2023-01-10T08:58:09;5.40;99.90
4520;DHT22;2272;49.226;8.108;2023-01-10T09:00:36;5.50;99.90
4520;DHT22;2272;49.226;8.108;2023-01-10T09:03:04;5.50;99.90
4520;DHT22;2272;49.226;8.108;2023-01-10T09:05:31;5.60;99.90
4520;DHT22;2272;49.226;8.108;2023-01-10T09:07:58;5.60;99.90
4520;DHT22;2272;49.226;8.108;2023-01-10T09:10:25;5.50;99.90
4520;DHT22;2272;49.226;8.108;2023-01-10T09:12:52;5.50;99.90
4520;DHT22;2272;49.226;8.108;2023-01-10T09:15:27;5.50;99.90
4520;DHT22;2272;49.226;8.108;2023-01-10T09:17:54;5.40;99.90
4520;DHT22;2272;49.226;8.108;2023-01-10T09:20:22;5.40;99.90
4520;DHT22;2272;49.226;8.108;2023-01-10T09:22:49;5.40;99.90
4520;DHT22;2272;49.226;8.108;2023-01-10T09:25:16;5.40;99.90
4520;DHT22;2272;49.226;8.108;2023-01-10T09:27:42;5.40;99.90
4520;DHT22;2272;49.226;8.108;2023-01-10T09:30:10;5.50;99.90
4520;DHT22;2272;49.226;8.108;2023-01-10T09:32:38;5.60;99.90
4520;DHT22;2272;49.226;8.108;2023-01-10T09:35:05;5.70;99.90
4520;DHT22;2272;49.226;8.108;2023-01-10T09:37:32;5.80;99.90
4520;DHT22;2272;49.226;8.108;2023-01-10T09:39:59;5.90;99.90
4520;DHT22;2272;49.226;8.108;2023-01-10T09:42:57;5.90;99.90
4520;DHT22;2272;49.226;8.108;2023-01-10T09:45:34;6.00;99.90
4520;DHT22;2272;49.226;8.108;2023-01-10T09:48:08;6.00;99.90
4520;DHT22;2272;49.226;8.108;2023-01-10T09:50:45;6.10;99.90
4520;DHT22;2272;49.226;8.108;2023-01-10T09:53:19;6.10;99.90
4520;DHT22;2272;49.226;8.108;2023-01-10T09:55:51;6.20;99.90
4520;DHT22;2272;49.226;8.108;2023-01-10T09:58:19;6.40;99.90
4520;DHT22;2272;49.226;8.108;2023-01-10T10:00:54;6.50;99.90
4520;DHT22;2272;49.226;8.108;2023-01-10T10:03:28;6.60;99.90
4520;DHT22;2272;49.226;8.108;2023-01-10T10:05:56;6.70;99.90
4520;DHT22;2272;49.226;8.108;2023-01-10T10:08:23;6.60;99.90
4520;DHT22;2272;49.226;8.108;2023-01-10T10:11:00;6.60;99.90
4520;DHT22;2272;49.226;8.108;2023-01-10T10:13:39;6.50;99.90
4520;DHT22;2272;49.226;8.108;2023-01-10T10:16:17;6.50;99.90
4520;DHT22;2272;49.226;8.108;2023-01-10T10:18:58;6.50;99.90
4520;DHT22;2272;49.226;8.108;2023-01-10T10:21:34;6.50;99.90
4520;DHT22;2272;49.226;8.108;2023-01-10T10:24:18;6.60;99.90
4520;DHT22;2272;49.226;8.108;2023-01-10T10:26:54;6.60;99.90
4520;DHT22;2272;49.226;8.108;2023-01-10T10:29:39;6.60;99.90
4520;DHT22;2272;49.226;8.108;2023-01-10T10:32:34;6.50;99.90
4520;DHT22;2272;49.226;8.108;2023-01-10T10:35:10;6.40;99.90
4520;DHT22;2272;49.226;8.108;2023-01-10T10:37:41;6.40;99.90
4520;DHT22;2272;49.226;8.108;2023-01-10T10:40:16;6.50;99.90
4520;DHT22;2272;49.226;8.108;2023-01-10T10:42:46;6.60;99.90
4520;DHT22;2272;49.226;8.108;2023-01-10T10:45:17;6.80;99.90
4520;DHT22;2272;49.226;8.108;2023-01-10T10:47:49;6.80;99.90
4520;DHT22;2272;49.226;8.108;2023-01-10T10:50:27;6.90;99.90
4520;DHT22;2272;49.226;8.108;2023-01-10T10:52:56;6.80;99.90
4520;DHT22;2272;49.226;8.108;2023-01-10T10:55:29;6.80;99.90
4520;DHT22;2272;49.226;8.108;2023-01-10T10:57:56;7.00;99.90
4520;DHT22;2272;49.226;8.108;2023-01-10T11:00:23;7.10;99.90
4520;DHT22;2272;49.226;8.108;2023-01-10T11:02:55;7.10;99.90
4520;DHT22;2272;49.226;8.108;2023-01-10T11:05:32;7.20;99.90
4520;DHT22;2272;49.226;8.108;2023-01-10T11:08:04;7.30;99.90
4520;DHT22;2272;49.226;8.108;2023-01-10T11:10:34;7.40;99.90
4520;DHT22;2272;49.226;8.108;2023-01-10T11:13:03;7.40;99.90
4520;DHT22;2272;49.226;8.108;2023-01-10T11:15:36;7.60;99.90
4520;DHT22;2272;49.226;8.108;2023-01-10T11:18:04;7.80;99.90
4520;DHT22;2272;49.226;8.108;2023-01-10T11:20:33;7.90;99.90
4520;DHT22;2272;49.226;8.108;2023-01-10T11:23:00;7.90;99.90
4520;DHT22;2272;49.226;8.108;2023-01-10T11:25:27;7.80;99.90
4520;DHT22;2272;49.226;8.108;2023-01-10T11:27:56;7.70;99.90
4520;DHT22;2272;49.226;8.108;2023-01-10T11:30:24;7.70;99.90
4520;DHT22;2272;49.226;8.108;2023-01-10T11:32:54;7.50;99.90
4520;DHT22;2272;49.226;8.108;2023-01-10T11:35:25;7.30;99.90
4520;DHT22;2272;49.226;8.108;2023-01-10T11:38:01;7.10;99.90
4520;DHT22;2272;49.226;8.108;2023-01-10T11:40:29;6.90;99.90
4520;DHT22;2272;49.226;8.108;2023-01-10T11:42:57;6.70;99.90
4520;DHT22;2272;49.226;8.108;2023-01-10T11:45:29;6.60;99.90
4520;DHT22;2272;49.226;8.108;2023-01-10T11:48:02;6.60;99.90
4520;DHT22;2272;49.226;8.108;2023-01-10T11:50:34;6.60;99.90
4520;DHT22;2272;49.226;8.108;2023-01-10T11:53:04;6.70;99.90
4520;DHT22;2272;49.226;8.108;2023-01-10T11:55:34;6.80;99.90
4520;DHT22;2272;49.226;8.108;2023-01-10T11:58:04;6.90;99.90
4520;DHT22;2272;49.226;8.108;2023-01-10T12:00:38;7.00;99.90
4520;DHT22;2272;49.226;8.108;2023-01-10T12:03:17;7.20;99.90
4520;DHT22;2272;49.226;8.108;2023-01-10T12:05:50;7.40;99.90
4520;DHT22;2272;49.226;8.108;2023-01-10T12:08:26;7.60;99.90
4520;DHT22;2272;49.226;8.108;2023-01-10T12:11:02;7.80;99.90
4520;DHT22;2272;49.226;8.108;2023-01-10T12:13:43;8.00;99.90
4520;DHT22;2272;49.226;8.108;2023-01-10T12:16:18;8.00;99.90
4520;DHT22;2272;49.226;8.108;2023-01-10T12:18:47;7.90;99.90
4520;DHT22;2272;49.226;8.108;2023-01-10T12:21:18;8.00;99.90
4520;DHT22;2272;49.226;8.108;2023-01-10T12:23:48;8.30;99.90
4520;DHT22;2272;49.226;8.108;2023-01-10T12:26:15;8.50;99.90
4520;DHT22;2272;49.226;8.108;2023-01-10T12:28:49;8.60;99.90
4520;DHT22;2272;49.226;8.108;2023-01-10T12:31:19;8.60;99.90
4520;DHT22;2272;49.226;8.108;2023-01-10T12:33:52;8.70;99.90
4520;DHT22;2272;49.226;8.108;2023-01-10T12:36:30;8.60;99.90
4520;DHT22;2272;49.226;8.108;2023-01-10T12:39:05;8.50;99.90
4520;DHT22;2272;49.226;8.108;2023-01-10T12:41:41;8.40;99.90
4520;DHT22;2272;49.226;8.108;2023-01-10T12:44:32;8.30;99.90
4520;DHT22;2272;49.226;8.108;2023-01-10T12:47:04;8.20;99.90
4520;DHT22;2272;49.226;8.108;2023-01-10T12:49:38;8.10;99.90
4520;DHT22;2272;49.226;8.108;2023-01-10T12:52:13;8.10;99.90
4520;DHT22;2272;49.226;8.108;2023-01-10T12:54:45;8.10;99.90
4520;DHT22;2272;49.226;8.108;2023-01-10T12:57:21;8.10;99.90
4520;DHT22;2272;49.226;8.108;2023-01-10T12:59:48;8.10;99.90
4520;DHT22;2272;49.226;8.108;2023-01-10T13:02:20;8.00;99.90
4520;DHT22;2272;49.226;8.108;2023-01-10T13:04:50;8.10;99.90
4520;DHT22;2272;49.226;8.108;2023-01-10T13:07:18;8.00;99.90
4520;DHT22;2272;49.226;8.108;2023-01-10T13:09:48;8.10;99.90
4520;DHT22;2272;49.226;8.108;2023-01-10T13:12:20;8.10;99.90
4520;DHT22;2272;49.226;8.108;2023-01-10T13:14:52;8.20;99.90
4520;DHT22;2272;49.226;8.108;2023-01-10T13:17:31;8.30;99.90
4520;DHT22;2272;49.226;8.108;2023-01-10T13:20:23;8.30;99.90
4520;DHT22;2272;49.226;8.108;2023-01-10T13:22:51;8.20;99.90
4520;DHT22;2272;49.226;8.108;2023-01-10T13:25:22;8.20;99.90
4520;DHT22;2272;49.226;8.108;2023-01-10T13:27:54;8.10;99.90
4520;DHT22;2272;49.226;8.108;2023-01-10T13:30:26;8.00;99.90
4520;DHT22;2272;49.226;8.108;2023-01-10T13:32:59;7.90;99.90
4520;DHT22;2272;49.226;8.108;2023-01-10T13:35:27;7.90;99.90
4520;DHT22;2272;49.226;8.108;2023-01-10T13:38:02;7.90;99.90
4520;DHT22;2272;49.226;8.108;2023-01-10T13:40:30;7.90;99.90
4520;DHT22;2272;49.226;8.108;2023-01-10T13:43:25;7.90;99.90
4520;DHT22;2272;49.226;8.108;2023-01-10T13:46:38;7.90;99.90
4520;DHT22;2272;49.226;8.108;2023-01-10T13:49:25;7.90;99.90
4520;DHT22;2272;49.226;8.108;2023-01-10T13:52:24;7.90;99.90
4520;DHT22;2272;49.226;8.108;2023-01-10T13:54:56;7.80;99.90
4520;DHT22;2272;49.226;8.108;2023-01-10T13:57:51;7.80;99.90
4520;DHT22;2272;49.226;8.108;2023-01-10T14:03:44;7.60;99.90
4520;DHT22;2272;49.226;8.108;2023-01-10T14:06:16;7.50;99.90
4520;DHT22;2272;49.226;8.108;2023-01-10T14:08:50;7.50;99.90
4520;DHT22;2272;49.226;8.108;2023-01-10T14:11:19;7.40;99.90
4520;DHT22;2272;49.226;8.108;2023-01-10T14:13:51;7.40;99.90
4520;DHT22;2272;49.226;8.108;2023-01-10T14:16:34;7.40;99.90
4520;DHT22;2272;49.226;8.108;2023-01-10T14:19:04;7.30;99.90
4520;DHT22;2272;49.226;8.108;2023-01-10T14:21:36;7.30;99.90
4520;DHT22;2272;49.226;8.108;2023-01-10T14:24:05;7.30;99.90
4520;DHT22;2272;49.226;8.108;2023-01-10T14:26:34;7.30;99.90
4520;DHT22;2272;49.226;8.108;2023-01-10T14:29:07;7.30;99.90
4520;DHT22;2272;49.226;8.108;2023-01-10T14:31:41;7.30;99.90
4520;DHT22;2272;49.226;8.108;2023-01-10T14:34:09;7.20;99.90
4520;DHT22;2272;49.226;8.108;2023-01-10T14:36:46;7.20;99.90
4520;DHT22;2272;49.226;8.108;2023-01-10T14:39:14;7.20;99.90
4520;DHT22;2272;49.226;8.108;2023-01-10T14:41:43;7.10;99.90
4520;DHT22;2272;49.226;8.108;2023-01-10T14:44:16;7.00;99.90
4520;DHT22;2272;49.226;8.108;2023-01-10T14:46:47;7.00;99.90
4520;DHT22;2272;49.226;8.108;2023-01-10T14:49:23;7.00;99.90
4520;DHT22;2272;49.226;8.108;2023-01-10T14:51:50;7.00;99.90
4520;DHT22;2272;49.226;8.108;2023-01-10T14:54:19;6.90;99.90
4520;DHT22;2272;49.226;8.108;2023-01-10T14:56:48;6.80;99.90
4520;DHT22;2272;49.226;8.108;2023-01-10T14:59:22;6.80;99.90
4520;DHT22;2272;49.226;8.108;2023-01-10T15:01:49;6.80;99.90
4520;DHT22;2272;49.226;8.108;2023-01-10T15:04:18;6.70;99.90
4520;DHT22;2272;49.226;8.108;2023-01-10T15:06:54;6.60;99.90
4520;DHT22;2272;49.226;8.108;2023-01-10T15:09:21;6.50;99.90
4520;DHT22;2272;49.226;8.108;2023-01-10T15:11:48;6.50;99.90
4520;DHT22;2272;49.226;8.108;2023-01-10T15:14:19;6.40;99.90
4520;DHT22;2272;49.226;8.108;2023-01-10T15:16:48;6.30;99.90
4520;DHT22;2272;49.226;8.108;2023-01-10T15:19:18;6.20;99.90
4520;DHT22;2272;49.226;8.108;2023-01-10T15:21:46;6.10;99.90
4520;DHT22;2272;49.226;8.108;2023-01-10T15:24:23;6.00;99.90
4520;DHT22;2272;49.226;8.108;2023-01-10T15:26:51;5.90;99.90
4520;DHT22;2272;49.226;8.108;2023-01-10T15:29:22;5.80;99.90
4520;DHT22;2272;49.226;8.108;2023-01-10T15:31:50;5.80;99.90
4520;DHT22;2272;49.226;8.108;2023-01-10T15:34:18;5.70;99.90
4520;DHT22;2272;49.226;8.108;2023-01-10T15:36:49;5.60;99.90
4520;DHT22;2272;49.226;8.108;2023-01-10T15:39:19;5.60;99.90
4520;DHT22;2272;49.226;8.108;2023-01-10T15:41:47;5.60;99.90
4520;DHT22;2272;49.226;8.108;2023-01-10T15:44:27;5.60;99.90
4520;DHT22;2272;49.226;8.108;2023-01-10T15:46:59;5.50;99.90
4520;DHT22;2272;49.226;8.108;2023-01-10T15:49:26;5.60;99.90
4520;DHT22;2272;49.226;8.108;2023-01-10T15:51:53;5.60;99.90
4520;DHT22;2272;49.226;8.108;2023-01-10T15:54:31;5.60;99.90
4520;DHT22;2272;49.226;8.108;2023-01-10T15:57:07;5.50;99.90
4520;DHT22;2272;49.226;8.108;2023-01-10T15:59:46;5.50;99.90
4520;DHT22;2272;49.226;8.108;2023-01-10T16:02:21;5.50;99.90
4520;DHT22;2272;49.226;8.108;2023-01-10T16:04:50;5.50;99.90
4520;DHT22;2272;49.226;8.108;2023-01-10T16:07:21;5.40;99.90
4520;DHT22;2272;49.226;8.108;2023-01-10T16:09:51;5.40;99.90
4520;DHT22;2272;49.226;8.108;2023-01-10T16:12:30;5.40;99.90
4520;DHT22;2272;49.226;8.108;2023-01-10T16:15:19;5.30;99.90
4520;DHT22;2272;49.226;8.108;2023-01-10T16:17:47;5.30;99.90
4520;DHT22;2272;49.226;8.108;2023-01-10T16:20:15;5.30;99.90
4520;DHT22;2272;49.226;8.108;2023-01-10T16:22:42;5.30;99.90
4520;DHT22;2272;49.226;8.108;2023-01-10T16:25:15;5.30;99.90
4520;DHT22;2272;49.226;8.108;2023-01-10T16:27:42;5.30;99.90
4520;DHT22;2272;49.226;8.108;2023-01-10T16:30:24;5.30;99.90
4520;DHT22;2272;49.226;8.108;2023-01-10T16:32:51;5.30;99.90
4520;DHT22;2272;49.226;8.108;2023-01-10T16:35:18;5.30;99.90
4520;DHT22;2272;49.226;8.108;2023-01-10T16:37:46;5.30;99.90
4520;DHT22;2272;49.226;8.108;2023-01-10T16:40:18;5.30;99.90
4520;DHT22;2272;49.226;8.108;2023-01-10T16:42:46;5.20;99.90
4520;DHT22;2272;49.226;8.108;2023-01-10T16:45:31;5.20;99.90